Time;durP1;ratioP1;P1;durP2;ratioP2;P2;SDS_P1;SDS_P2;PMS_P1;PMS_P2;Temp;Humidity;BMP_temperature;BMP_pressure;BME280_temperature;BME280_humidity;BME280_pressure;Samples;Min_cycle;Max_cycle;Signal;HPM_P1;HPM_P2
2023/02/11 00:01:41;;;;;;;56.95;25.40;;;;;;;;;;5017762;28;20217;-66
2023/02/11 00:04:07;;;;;;;57.15;24.40;;;;;;;;;;5022995;28;20197;-66
2023/02/11 00:06:33;;;;;;;53.83;24.52;;;;;;;;;;5029242;28;20213;-66
2023/02/11 00:08:59;;;;;;;53.43;25.27;;;;;;;;;;5027715;28;20222;-67
2023/02/11 00:11:29;;;;;;;53.60;24.48;;;;;;;;;;5033845;28;20205;-66
2023/02/11 00:13:55;;;;;;;51.85;24.52;;;;;;;;;;5043319;28;20213;-66
2023/02/11 00:16:21;;;;;;;62.58;24.95;;;;;;;;;;5025699;28;20205;-66
2023/02/11 00:18:47;;;;;;;53.25;24.58;;;;;;;;;;5033775;28;20190;-66
2023/02/11 00:21:15;;;;;;;54.35;24.60;;;;;;;;;;5027660;28;20220;-66
2023/02/11 00:23:41;;;;;;;49.87;24.17;;;;;;;;;;5028870;28;20732;-66
2023/02/11 00:26:24;;;;;;;52.53;22.83;;;;;;;;;;5025503;28;20222;-66
2023/02/11 00:28:50;;;;;;;55.13;24.35;;;;;;;;;;5028955;28;20214;-66
2023/02/11 00:31:17;;;;;;;49.45;22.77;;;;;;;;;;5022785;28;20255;-66
2023/02/11 00:33:43;;;;;;;53.17;22.80;;;;;;;;;;5025182;28;20185;-66
2023/02/11 00:36:17;;;;;;;51.57;22.10;;;;;;;;;;5026317;28;20787;-66
2023/02/11 00:38:43;;;;;;;50.20;21.60;;;;;;;;;;5016256;28;20185;-66
2023/02/11 00:41:10;;;;;;;48.15;22.73;;;;;;;;;;5029049;28;20688;-66
2023/02/11 00:43:35;;;;;;;42.78;22.02;;;;;;;;;;5021344;28;20218;-66
2023/02/11 00:46:01;;;;;;;53.92;23.15;;;;;;;;;;5012657;28;20225;-66
2023/02/11 00:48:27;;;;;;;51.88;21.27;;;;;;;;;;5030450;28;20383;-66
2023/02/11 00:50:53;;;;;;;44.17;19.50;;;;;;;;;;5037965;28;20645;-66
2023/02/11 00:53:18;;;;;;;49.67;20.83;;;;;;;;;;5015149;28;20198;-66
2023/02/11 00:55:43;;;;;;;44.90;20.20;;;;;;;;;;5027636;28;20186;-66
2023/02/11 00:58:09;;;;;;;43.92;20.27;;;;;;;;;;5022023;28;20190;-66
2023/02/11 01:00:34;;;;;;;43.72;20.05;;;;;;;;;;5027791;28;20209;-66
2023/02/11 01:03:00;;;;;;;37.00;18.60;;;;;;;;;;5018038;28;20210;-66
2023/02/11 01:05:25;;;;;;;41.47;19.92;;;;;;;;;;5035647;28;20540;-66
2023/02/11 01:07:50;;;;;;;42.63;18.13;;;;;;;;;;5021414;28;20210;-66
2023/02/11 01:10:16;;;;;;;42.00;18.60;;;;;;;;;;5037048;28;20216;-66
2023/02/11 01:12:41;;;;;;;44.83;18.50;;;;;;;;;;5018452;28;20273;-67
2023/02/11 01:15:08;;;;;;;44.67;18.83;;;;;;;;;;5041438;28;20190;-66
2023/02/11 01:17:34;;;;;;;40.27;18.33;;;;;;;;;;5042372;28;20534;-66
2023/02/11 01:20:08;;;;;;;42.50;17.98;;;;;;;;;;5035229;28;20189;-67
2023/02/11 01:22:36;;;;;;;39.58;17.13;;;;;;;;;;5028417;28;20693;-66
2023/02/11 01:25:02;;;;;;;41.03;16.27;;;;;;;;;;5045173;28;20673;-66
2023/02/11 01:27:27;;;;;;;41.05;16.48;;;;;;;;;;5031830;28;20250;-66
2023/02/11 01:29:52;;;;;;;33.60;15.77;;;;;;;;;;5043814;28;20558;-65
2023/02/11 01:32:18;;;;;;;35.75;16.35;;;;;;;;;;5040848;28;20217;-66
2023/02/11 01:34:43;;;;;;;31.48;14.10;;;;;;;;;;5046129;28;20339;-65
2023/02/11 01:37:09;;;;;;;34.20;15.10;;;;;;;;;;5039188;28;20285;-65
2023/02/11 01:39:34;;;;;;;39.67;15.13;;;;;;;;;;5032812;28;20189;-66
2023/02/11 01:42:00;;;;;;;32.40;14.68;;;;;;;;;;5040816;28;20197;-66
2023/02/11 01:44:28;;;;;;;32.42;12.85;;;;;;;;;;5027398;28;20596;-65
2023/02/11 01:46:54;;;;;;;42.40;14.07;;;;;;;;;;5031136;28;20221;-65
2023/02/11 01:49:56;;;;;;;30.48;13.02;;;;;;;;;;5034440;28;20209;-66
2023/02/11 01:52:38;;;;;;;35.72;12.45;;;;;;;;;;5028221;28;20197;-67
2023/02/11 01:57:55;;;;;;;32.80;12.20;;;;;;;;;;5031181;28;20193;-67
2023/02/11 02:00:35;;;;;;;30.08;11.52;;;;;;;;;;5028239;28;20564;-67
2023/02/11 02:03:15;;;;;;;36.92;11.88;;;;;;;;;;5015792;28;20273;-67
2023/02/11 02:05:56;;;;;;;28.25;11.10;;;;;;;;;;5028067;28;20201;-67
2023/02/11 02:08:35;;;;;;;29.38;10.57;;;;;;;;;;5029681;28;20643;-67
2023/02/11 02:11:00;;;;;;;29.23;10.20;;;;;;;;;;5018826;28;20389;-67
2023/02/11 02:13:28;;;;;;;28.20;10.10;;;;;;;;;;5036453;28;20294;-67
2023/02/11 02:15:56;;;;;;;32.72;10.68;;;;;;;;;;5029378;28;20183;-67
2023/02/11 02:18:47;;;;;;;26.42;9.80;;;;;;;;;;5031262;28;20660;-67
2023/02/11 02:21:33;;;;;;;26.98;9.70;;;;;;;;;;5034156;28;20244;-67
2023/02/11 02:24:17;;;;;;;25.75;9.80;;;;;;;;;;5012984;28;20202;-67
2023/02/11 02:27:01;;;;;;;39.13;10.13;;;;;;;;;;5026411;28;20206;-67
2023/02/11 02:29:53;;;;;;;29.17;9.90;;;;;;;;;;5038782;28;20216;-67
2023/02/11 02:32:37;;;;;;;29.25;9.75;;;;;;;;;;5028626;28;20269;-67
2023/02/11 02:35:23;;;;;;;28.33;9.60;;;;;;;;;;5025685;28;20198;-67
2023/02/11 02:38:12;;;;;;;26.35;9.25;;;;;;;;;;5029079;28;20194;-67
2023/02/11 02:40:43;;;;;;;28.73;10.07;;;;;;;;;;5026744;28;20194;-66
2023/02/11 02:43:10;;;;;;;27.30;9.17;;;;;;;;;;5013186;28;20195;-67
2023/02/11 02:45:35;;;;;;;35.63;9.52;;;;;;;;;;5017672;28;20341;-67
2023/02/11 02:48:01;;;;;;;30.98;9.98;;;;;;;;;;5028663;28;20432;-67
2023/02/11 02:50:32;;;;;;;27.97;9.17;;;;;;;;;;5026751;28;20281;-67
2023/02/11 02:53:16;;;;;;;23.30;9.85;;;;;;;;;;5030329;28;20195;-67
2023/02/11 02:55:58;;;;;;;26.77;10.03;;;;;;;;;;5023243;28;20832;-67
2023/02/11 02:58:42;;;;;;;28.80;10.63;;;;;;;;;;5038556;28;20297;-67
2023/02/11 03:01:28;;;;;;;36.30;9.98;;;;;;;;;;5030800;28;20472;-66
2023/02/11 03:04:12;;;;;;;31.45;10.18;;;;;;;;;;5023845;28;20198;-66
2023/02/11 03:06:47;;;;;;;27.83;10.30;;;;;;;;;;5019393;28;20194;-67
2023/02/11 03:09:21;;;;;;;28.90;10.70;;;;;;;;;;5026146;28;20577;-66
2023/02/11 03:11:46;;;;;;;29.02;11.32;;;;;;;;;;5022431;28;20224;-66
2023/02/11 03:14:15;;;;;;;33.05;10.73;;;;;;;;;;5024999;28;20225;-66
2023/02/11 03:16:44;;;;;;;29.30;10.45;;;;;;;;;;5028935;28;20248;-66
2023/02/11 03:19:22;;;;;;;35.80;11.60;;;;;;;;;;5027656;28;20212;-66
2023/02/11 03:21:50;;;;;;;29.55;10.43;;;;;;;;;;5026523;28;20182;-67
2023/02/11 03:24:29;;;;;;;30.57;10.60;;;;;;;;;;5026172;28;20190;-66
2023/02/11 03:26:57;;;;;;;33.47;11.55;;;;;;;;;;5023414;28;20186;-66
2023/02/11 03:29:35;;;;;;;31.65;11.43;;;;;;;;;;5024849;28;20260;-66
2023/02/11 03:32:27;;;;;;;29.65;10.85;;;;;;;;;;5036630;28;20402;-66
2023/02/11 03:34:59;;;;;;;26.55;11.65;;;;;;;;;;5023406;28;20609;-66
2023/02/11 03:37:33;;;;;;;32.83;12.13;;;;;;;;;;5023871;28;20231;-66
2023/02/11 03:40:00;;;;;;;31.15;12.43;;;;;;;;;;5026297;28;20552;-66
2023/02/11 03:42:32;;;;;;;36.75;11.63;;;;;;;;;;5022545;28;20675;-66
2023/02/11 03:45:04;;;;;;;28.38;11.60;;;;;;;;;;5026540;28;20185;-66
2023/02/11 03:47:32;;;;;;;31.33;12.45;;;;;;;;;;5031603;28;20266;-67
2023/02/11 03:49:59;;;;;;;27.20;11.32;;;;;;;;;;5028160;28;20178;-67
2023/02/11 03:52:25;;;;;;;34.00;12.40;;;;;;;;;;5034495;28;20901;-66
2023/02/11 03:54:54;;;;;;;31.13;12.20;;;;;;;;;;5034101;28;20371;-66
2023/02/11 03:57:20;;;;;;;41.67;14.10;;;;;;;;;;5039793;28;20289;-66
2023/02/11 03:59:53;;;;;;;36.85;13.50;;;;;;;;;;5042615;28;20232;-66
2023/02/11 04:02:19;;;;;;;35.42;13.23;;;;;;;;;;5031023;28;20273;-66
2023/02/11 04:04:45;;;;;;;31.90;13.07;;;;;;;;;;5023600;28;20720;-66
2023/02/11 04:07:11;;;;;;;31.98;12.90;;;;;;;;;;5043251;28;20267;-67
2023/02/11 04:09:37;;;;;;;30.35;12.93;;;;;;;;;;5021880;28;20237;-66
2023/02/11 04:12:02;;;;;;;36.75;13.63;;;;;;;;;;5027418;28;20205;-66
2023/02/11 04:14:28;;;;;;;39.50;14.40;;;;;;;;;;5031344;28;20260;-66
2023/02/11 04:16:53;;;;;;;34.80;13.18;;;;;;;;;;5022818;28;20193;-66
2023/02/11 04:19:19;;;;;;;30.23;12.85;;;;;;;;;;5034613;28;20221;-66
2023/02/11 04:21:44;;;;;;;37.63;13.65;;;;;;;;;;5019985;28;20190;-66
2023/02/11 04:24:09;;;;;;;38.80;14.25;;;;;;;;;;5025027;28;20239;-67
2023/02/11 04:26:35;;;;;;;30.95;13.10;;;;;;;;;;5020643;28;20197;-66
2023/02/11 04:29:00;;;;;;;39.60;13.77;;;;;;;;;;5020524;28;20217;-67
2023/02/11 04:31:25;;;;;;;35.07;12.73;;;;;;;;;;5025977;28;20196;-66
2023/02/11 04:33:51;;;;;;;27.30;13.75;;;;;;;;;;5018491;28;20689;-66
2023/02/11 04:36:16;;;;;;;36.78;13.20;;;;;;;;;;5029176;28;20221;-66
2023/02/11 04:38:41;;;;;;;29.45;13.23;;;;;;;;;;5023132;28;20226;-66
2023/02/11 04:41:08;;;;;;;35.13;13.68;;;;;;;;;;5030523;28;20580;-66
2023/02/11 04:43:33;;;;;;;30.67;12.43;;;;;;;;;;5019981;28;20285;-67
2023/02/11 04:45:59;;;;;;;35.97;13.55;;;;;;;;;;5021586;28;20198;-66
2023/02/11 04:48:25;;;;;;;33.00;13.82;;;;;;;;;;5041070;28;20221;-66
2023/02/11 04:50:50;;;;;;;30.20;13.17;;;;;;;;;;5006973;28;20732;-66
2023/02/11 04:53:16;;;;;;;29.48;13.30;;;;;;;;;;5021956;28;20289;-67
2023/02/11 04:55:41;;;;;;;33.08;13.00;;;;;;;;;;5033909;28;20629;-67
2023/02/11 04:58:06;;;;;;;30.52;13.10;;;;;;;;;;5041018;28;20606;-66
2023/02/11 05:00:32;;;;;;;34.85;12.77;;;;;;;;;;5038586;28;20218;-66
2023/02/11 05:02:57;;;;;;;33.63;13.32;;;;;;;;;;5029958;28;20194;-66
2023/02/11 05:05:22;;;;;;;37.60;13.23;;;;;;;;;;5026522;28;20193;-66
2023/02/11 05:07:48;;;;;;;32.90;14.00;;;;;;;;;;5019088;28;20297;-66
2023/02/11 05:10:13;;;;;;;45.63;13.93;;;;;;;;;;5028101;28;20288;-67
2023/02/11 05:12:39;;;;;;;37.97;13.32;;;;;;;;;;5019342;28;20194;-67
2023/02/11 05:15:04;;;;;;;32.25;12.98;;;;;;;;;;5009147;28;20202;-67
2023/02/11 05:17:30;;;;;;;32.58;13.15;;;;;;;;;;5012998;28;20197;-66
2023/02/11 05:19:55;;;;;;;33.83;13.82;;;;;;;;;;5040599;28;20639;-66
2023/02/11 05:22:21;;;;;;;32.88;14.15;;;;;;;;;;5022478;28;20219;-66
2023/02/11 05:24:46;;;;;;;42.42;13.93;;;;;;;;;;5022625;28;20272;-66
2023/02/11 05:27:12;;;;;;;37.47;13.50;;;;;;;;;;5039498;28;20260;-66
2023/02/11 05:29:37;;;;;;;35.17;13.53;;;;;;;;;;5034212;28;20300;-66
2023/02/11 05:32:03;;;;;;;31.57;14.47;;;;;;;;;;5038488;28;20432;-66
2023/02/11 05:34:28;;;;;;;40.40;14.70;;;;;;;;;;5033788;28;20186;-65
2023/02/11 05:36:53;;;;;;;39.67;14.40;;;;;;;;;;5022520;28;20232;-65
2023/02/11 05:39:19;;;;;;;34.25;13.63;;;;;;;;;;5033776;28;20185;-65
2023/02/11 05:41:44;;;;;;;35.22;15.50;;;;;;;;;;5036554;28;20193;-66
2023/02/11 05:44:10;;;;;;;35.85;15.93;;;;;;;;;;5013181;28;20191;-65
2023/02/11 05:46:35;;;;;;;36.33;14.90;;;;;;;;;;5024522;28;20187;-66
2023/02/11 05:49:00;;;;;;;38.88;16.05;;;;;;;;;;5020993;28;20273;-66
2023/02/11 05:51:26;;;;;;;36.42;14.50;;;;;;;;;;5026721;28;20222;-66
2023/02/11 05:53:52;;;;;;;37.85;15.70;;;;;;;;;;5018432;28;20274;-66
2023/02/11 05:56:17;;;;;;;37.20;15.18;;;;;;;;;;5028970;28;20189;-66
2023/02/11 05:58:43;;;;;;;35.10;15.95;;;;;;;;;;5028355;28;20186;-66
2023/02/11 06:01:08;;;;;;;34.67;15.60;;;;;;;;;;5024706;28;20575;-66
2023/02/11 06:03:33;;;;;;;46.42;16.40;;;;;;;;;;5027500;28;20244;-66
2023/02/11 06:05:59;;;;;;;39.72;17.80;;;;;;;;;;5027021;28;20558;-66
2023/02/11 06:08:24;;;;;;;37.72;16.23;;;;;;;;;;5031197;28;20207;-66
2023/02/11 06:10:49;;;;;;;43.90;16.73;;;;;;;;;;5024429;28;20677;-66
2023/02/11 06:13:17;;;;;;;44.13;17.00;;;;;;;;;;5027563;28;20198;-66
2023/02/11 06:15:43;;;;;;;40.63;17.27;;;;;;;;;;5026047;28;20232;-66
2023/02/11 06:18:08;;;;;;;38.63;17.00;;;;;;;;;;5034695;28;20243;-65
2023/02/11 06:20:34;;;;;;;44.50;18.77;;;;;;;;;;5031441;28;20195;-66
2023/02/11 06:22:59;;;;;;;43.03;17.70;;;;;;;;;;5019990;28;20192;-66
2023/02/11 06:25:24;;;;;;;45.50;18.17;;;;;;;;;;5028993;28;20198;-66
2023/02/11 06:27:50;;;;;;;39.55;18.38;;;;;;;;;;5029876;28;20646;-66
2023/02/11 06:30:15;;;;;;;38.77;18.43;;;;;;;;;;5027563;28;20205;-66
2023/02/11 06:32:41;;;;;;;44.53;19.33;;;;;;;;;;5020885;28;20206;-66
2023/02/11 06:35:07;;;;;;;41.93;19.73;;;;;;;;;;5027141;28;20194;-66
2023/02/11 06:37:35;;;;;;;43.00;19.80;;;;;;;;;;5042299;28;20260;-66
2023/02/11 06:40:00;;;;;;;44.10;19.37;;;;;;;;;;5029713;28;20201;-66
2023/02/11 06:42:26;;;;;;;39.33;19.13;;;;;;;;;;5040470;28;20204;-66
2023/02/11 06:44:51;;;;;;;42.03;18.47;;;;;;;;;;5039439;28;20273;-66
2023/02/11 06:47:16;;;;;;;46.42;19.48;;;;;;;;;;5036975;28;20234;-66
2023/02/11 06:49:42;;;;;;;39.97;19.47;;;;;;;;;;5035719;28;20231;-66
2023/02/11 06:52:07;;;;;;;48.17;20.17;;;;;;;;;;5029859;28;20218;-66
2023/02/11 06:54:32;;;;;;;40.38;19.67;;;;;;;;;;5027286;28;20721;-66
2023/02/11 06:56:58;;;;;;;44.55;21.10;;;;;;;;;;5036948;28;20233;-66
2023/02/11 06:59:23;;;;;;;48.03;21.37;;;;;;;;;;5029553;28;20198;-66
2023/02/11 07:01:48;;;;;;;48.28;21.27;;;;;;;;;;5025393;28;20606;-66
2023/02/11 07:04:14;;;;;;;45.47;21.30;;;;;;;;;;5028238;28;20227;-66
2023/02/11 07:06:40;;;;;;;50.20;22.70;;;;;;;;;;5034306;28;20198;-66
2023/02/11 07:09:06;;;;;;;52.17;21.73;;;;;;;;;;5028049;28;20211;-67
2023/02/11 07:11:32;;;;;;;54.33;22.67;;;;;;;;;;5041352;28;20194;-66
2023/02/11 07:14:07;;;;;;;48.05;23.17;;;;;;;;;;5036249;28;20277;-67
2023/02/11 07:16:33;;;;;;;51.27;23.07;;;;;;;;;;5040003;28;20192;-66
2023/02/11 07:18:59;;;;;;;47.28;22.58;;;;;;;;;;5042396;28;20181;-66
2023/02/11 07:21:25;;;;;;;48.60;24.20;;;;;;;;;;5044642;28;20193;-66
2023/02/11 07:23:51;;;;;;;60.23;24.87;;;;;;;;;;5035733;28;20193;-66
2023/02/11 07:26:21;;;;;;;44.10;24.03;;;;;;;;;;5040125;28;20675;-66
2023/02/11 07:28:46;;;;;;;55.45;24.35;;;;;;;;;;5040614;28;20198;-66
2023/02/11 07:31:23;;;;;;;53.70;23.17;;;;;;;;;;5041909;28;20197;-66
2023/02/11 07:33:51;;;;;;;56.22;24.48;;;;;;;;;;5035933;28;20186;-66
2023/02/11 07:36:16;;;;;;;48.08;23.52;;;;;;;;;;5041597;28;20702;-66
2023/02/11 07:38:42;;;;;;;55.33;25.48;;;;;;;;;;5026776;28;20466;-66
2023/02/11 07:41:10;;;;;;;56.25;24.90;;;;;;;;;;5025325;28;20194;-66
2023/02/11 07:43:37;;;;;;;52.92;24.48;;;;;;;;;;5033202;28;20197;-66
2023/02/11 07:46:11;;;;;;;54.75;25.63;;;;;;;;;;5041338;28;20286;-66
2023/02/11 07:48:36;;;;;;;58.47;24.38;;;;;;;;;;5036808;28;20213;-65
2023/02/11 07:51:06;;;;;;;57.10;24.55;;;;;;;;;;5035774;28;20478;-65
2023/02/11 07:53:31;;;;;;;56.53;25.63;;;;;;;;;;5035463;28;20284;-66
2023/02/11 07:55:57;;;;;;;57.33;26.02;;;;;;;;;;5041435;28;20334;-66
2023/02/11 07:58:22;;;;;;;55.17;25.95;;;;;;;;;;5038170;28;20237;-66
2023/02/11 08:00:47;;;;;;;55.88;25.90;;;;;;;;;;5037322;28;20289;-66
2023/02/11 08:03:13;;;;;;;59.40;25.90;;;;;;;;;;5024314;28;20202;-66
2023/02/11 08:05:38;;;;;;;54.65;24.67;;;;;;;;;;5030958;28;20201;-66
2023/02/11 08:08:04;;;;;;;52.75;25.00;;;;;;;;;;5032747;28;20296;-66
2023/02/11 08:10:29;;;;;;;54.50;24.60;;;;;;;;;;5031739;28;20260;-66
2023/02/11 08:12:54;;;;;;;44.28;24.20;;;;;;;;;;5033600;28;20196;-66
2023/02/11 08:15:20;;;;;;;50.15;25.25;;;;;;;;;;5033565;28;20372;-67
2023/02/11 08:17:45;;;;;;;52.25;24.95;;;;;;;;;;5038520;28;20202;-66
2023/02/11 08:20:11;;;;;;;56.03;25.83;;;;;;;;;;5027189;28;20226;-66
2023/02/11 08:22:36;;;;;;;54.97;26.17;;;;;;;;;;5025563;28;20281;-66
2023/02/11 08:25:01;;;;;;;54.67;26.23;;;;;;;;;;5032244;28;20194;-67
2023/02/11 08:27:27;;;;;;;53.20;25.15;;;;;;;;;;5029758;28;20189;-67
2023/02/11 08:29:53;;;;;;;51.03;24.43;;;;;;;;;;5024457;28;20295;-67
2023/02/11 08:32:20;;;;;;;50.65;26.27;;;;;;;;;;5020073;28;20190;-67
2023/02/11 08:34:45;;;;;;;52.08;25.70;;;;;;;;;;5020903;28;20621;-65
2023/02/11 08:37:11;;;;;;;53.05;26.70;;;;;;;;;;5038546;28;20247;-66
2023/02/11 08:39:36;;;;;;;51.33;24.52;;;;;;;;;;5034319;28;20623;-65
2023/02/11 08:42:02;;;;;;;51.10;25.55;;;;;;;;;;5030762;28;20281;-65
2023/02/11 08:44:28;;;;;;;48.85;24.85;;;;;;;;;;5038148;28;20591;-65
2023/02/11 08:46:54;;;;;;;54.50;24.77;;;;;;;;;;5040877;28;20200;-65
2023/02/11 08:49:21;;;;;;;53.40;26.45;;;;;;;;;;5037495;28;20217;-65
2023/02/11 08:51:47;;;;;;;51.50;25.05;;;;;;;;;;5030182;28;20189;-65
2023/02/11 08:54:13;;;;;;;59.42;26.50;;;;;;;;;;5037092;28;20193;-65
2023/02/11 08:56:38;;;;;;;55.53;26.33;;;;;;;;;;5030337;28;20272;-66
2023/02/11 08:59:05;;;;;;;52.88;26.00;;;;;;;;;;5032158;28;20289;-66
2023/02/11 09:01:31;;;;;;;51.53;24.92;;;;;;;;;;5030594;28;20274;-66
2023/02/11 09:03:57;;;;;;;52.35;25.23;;;;;;;;;;5043711;28;20242;-66
2023/02/11 09:06:23;;;;;;;46.90;25.02;;;;;;;;;;5038591;28;20556;-65
2023/02/11 09:08:51;;;;;;;54.20;26.50;;;;;;;;;;5037114;28;20220;-65
2023/02/11 09:11:25;;;;;;;50.65;24.95;;;;;;;;;;5042418;28;20193;-66
2023/02/11 09:13:50;;;;;;;51.90;25.58;;;;;;;;;;5035966;28;20186;-66
2023/02/11 09:16:21;;;;;;;51.00;24.08;;;;;;;;;;5040839;28;20625;-66
2023/02/11 09:18:47;;;;;;;50.20;23.80;;;;;;;;;;5036616;28;20189;-66
2023/02/11 09:21:15;;;;;;;49.22;24.30;;;;;;;;;;5038007;28;20703;-65
2023/02/11 09:23:42;;;;;;;45.00;23.95;;;;;;;;;;5035482;28;20190;-66
2023/02/11 09:26:16;;;;;;;47.53;23.77;;;;;;;;;;5040734;28;20611;-67
2023/02/11 09:28:41;;;;;;;47.30;24.58;;;;;;;;;;5045596;28;20273;-66
2023/02/11 09:31:12;;;;;;;45.78;23.67;;;;;;;;;;5033929;28;20198;-66
2023/02/11 09:33:41;;;;;;;46.95;22.88;;;;;;;;;;5040583;28;20200;-67
2023/02/11 09:36:06;;;;;;;50.78;23.70;;;;;;;;;;5039164;28;20463;-67
2023/02/11 09:38:32;;;;;;;50.38;23.90;;;;;;;;;;5047086;28;20182;-66
2023/02/11 09:40:58;;;;;;;44.08;22.92;;;;;;;;;;5041989;28;20210;-67
2023/02/11 09:43:35;;;;;;;41.58;23.42;;;;;;;;;;5043573;28;20261;-67
2023/02/11 09:46:01;;;;;;;42.33;22.13;;;;;;;;;;5044948;28;20185;-67
2023/02/11 09:48:37;;;;;;;42.28;22.23;;;;;;;;;;4326664;28;10000817;-67
2023/02/11 09:51:03;;;;;;;40.38;22.85;;;;;;;;;;5023720;28;20317;-67
2023/02/11 09:53:35;;;;;;;40.00;21.73;;;;;;;;;;5014061;28;20227;-67
2023/02/11 09:56:10;;;;;;;40.45;21.70;;;;;;;;;;5023208;28;20601;-66
2023/02/11 09:58:39;;;;;;;40.47;20.80;;;;;;;;;;5020778;28;20216;-66
2023/02/11 10:01:12;;;;;;;44.25;21.10;;;;;;;;;;5021786;28;20300;-67
2023/02/11 10:03:49;;;;;;;42.85;20.92;;;;;;;;;;5026814;28;20243;-67
2023/02/11 10:06:44;;;;;;;43.72;20.40;;;;;;;;;;5025995;28;20681;-67
2023/02/11 10:09:29;;;;;;;36.80;20.35;;;;;;;;;;5034301;28;20766;-67
2023/02/11 10:12:22;;;;;;;41.08;20.80;;;;;;;;;;5025866;28;20281;-66
2023/02/11 10:15:02;;;;;;;35.08;19.88;;;;;;;;;;5036735;28;20217;-67
2023/02/11 10:17:49;;;;;;;36.25;20.40;;;;;;;;;;5021585;28;20197;-66
2023/02/11 10:20:23;;;;;;;40.78;20.02;;;;;;;;;;5027497;28;20747;-66
2023/02/11 10:22:59;;;;;;;39.22;19.77;;;;;;;;;;5036474;28;20679;-66
2023/02/11 10:25:37;;;;;;;37.42;20.08;;;;;;;;;;5017113;28;20701;-66
2023/02/11 10:28:17;;;;;;;35.40;19.45;;;;;;;;;;5025450;28;20343;-66
2023/02/11 10:30:56;;;;;;;36.22;20.60;;;;;;;;;;5032892;28;20209;-66
2023/02/11 10:33:27;;;;;;;36.10;19.65;;;;;;;;;;5022520;28;20490;-67
2023/02/11 10:35:52;;;;;;;37.80;19.67;;;;;;;;;;5027219;28;20744;-66
2023/02/11 10:38:18;;;;;;;36.78;19.17;;;;;;;;;;5024918;28;20190;-66
2023/02/11 10:40:43;;;;;;;33.85;19.05;;;;;;;;;;5032469;28;20197;-66
2023/02/11 10:43:15;;;;;;;34.17;20.50;;;;;;;;;;5023386;28;20234;-66
2023/02/11 10:45:46;;;;;;;41.63;19.83;;;;;;;;;;5024257;28;20194;-66
2023/02/11 10:48:52;;;;;;;42.58;19.77;;;;;;;;;;5023893;28;20238;-67
2023/02/11 10:51:22;;;;;;;39.17;20.13;;;;;;;;;;5013371;28;20202;-67
2023/02/11 10:54:12;;;;;;;37.80;19.52;;;;;;;;;;5022626;28;20190;-66
2023/02/11 10:56:46;;;;;;;31.95;18.60;;;;;;;;;;5018033;28;20182;-67
2023/02/11 10:59:26;;;;;;;35.20;19.13;;;;;;;;;;5024190;28;20284;-67
2023/02/11 11:02:04;;;;;;;35.50;18.88;;;;;;;;;;5016000;28;20274;-67
2023/02/11 11:04:33;;;;;;;31.75;18.60;;;;;;;;;;5026299;28;20557;-66
2023/02/11 11:07:15;;;;;;;31.98;18.92;;;;;;;;;;5020527;28;20252;-66
2023/02/11 11:09:58;;;;;;;37.78;19.27;;;;;;;;;;5025832;28;20641;-66
2023/02/11 11:12:49;;;;;;;33.60;18.63;;;;;;;;;;5020408;28;20194;-67
2023/02/11 11:15:17;;;;;;;34.28;18.15;;;;;;;;;;5018663;28;20210;-67
2023/02/11 11:17:42;;;;;;;29.92;17.70;;;;;;;;;;5020150;28;20463;-67
2023/02/11 11:20:30;;;;;;;31.20;17.10;;;;;;;;;;5024982;28;20229;-67
2023/02/11 11:23:13;;;;;;;33.22;18.00;;;;;;;;;;5026218;28;20213;-66
2023/02/11 11:25:42;;;;;;;29.00;17.13;;;;;;;;;;5029413;28;20649;-66
2023/02/11 11:28:19;;;;;;;31.17;16.92;;;;;;;;;;5035147;28;20240;-66
2023/02/11 11:30:44;;;;;;;27.70;16.13;;;;;;;;;;5041526;28;20189;-66
2023/02/11 11:33:28;;;;;;;27.60;16.88;;;;;;;;;;5041232;28;20239;-66
2023/02/11 11:36:09;;;;;;;33.28;14.88;;;;;;;;;;5037896;28;20578;-67
2023/02/11 11:38:37;;;;;;;26.85;15.60;;;;;;;;;;5039096;28;20242;-67
2023/02/11 11:41:13;;;;;;;25.65;15.23;;;;;;;;;;5030398;28;20194;-67
2023/02/11 11:43:39;;;;;;;23.63;15.00;;;;;;;;;;5047969;28;20181;-67
2023/02/11 11:46:06;;;;;;;26.25;15.23;;;;;;;;;;5044496;28;20255;-67
2023/02/11 11:48:35;;;;;;;28.17;16.00;;;;;;;;;;5024440;28;20205;-67
2023/02/11 11:51:04;;;;;;;27.10;13.70;;;;;;;;;;5027722;28;20212;-66
2023/02/11 11:53:29;;;;;;;23.83;14.57;;;;;;;;;;5038661;28;20273;-67
2023/02/11 11:56:04;;;;;;;24.63;13.30;;;;;;;;;;5021735;28;20276;-66
2023/02/11 11:58:31;;;;;;;20.67;13.35;;;;;;;;;;5037243;28;20273;-66
2023/02/11 12:01:38;;;;;;;23.58;13.20;;;;;;;;;;5019752;28;20297;-66
2023/02/11 12:04:36;;;;;;;20.08;12.75;;;;;;;;;;5026044;28;20287;-67
2023/02/11 12:07:24;;;;;;;25.15;12.70;;;;;;;;;;5029883;28;20561;-68
2023/02/11 12:10:20;;;;;;;18.15;11.13;;;;;;;;;;5027836;28;20329;-67
2023/02/11 12:13:06;;;;;;;18.50;10.43;;;;;;;;;;5025447;28;20236;-67
2023/02/11 12:15:40;;;;;;;23.08;11.48;;;;;;;;;;5022585;28;20565;-67
2023/02/11 12:18:16;;;;;;;19.27;11.13;;;;;;;;;;5015347;28;20549;-67
2023/02/11 12:20:56;;;;;;;21.50;11.93;;;;;;;;;;5027206;28;20192;-66
2023/02/11 12:23:43;;;;;;;19.25;10.85;;;;;;;;;;5015091;28;20639;-67
2023/02/11 12:26:13;;;;;;;22.73;11.90;;;;;;;;;;5018797;28;20199;-67
2023/02/11 12:28:43;;;;;;;20.77;11.25;;;;;;;;;;5014200;28;20309;-67
2023/02/11 12:31:18;;;;;;;20.02;10.98;;;;;;;;;;5037101;28;20252;-67
2023/02/11 12:34:22;;;;;;;17.20;9.32;;;;;;;;;;5027648;28;20204;-67
2023/02/11 12:37:08;;;;;;;20.30;8.93;;;;;;;;;;5009759;28;20226;-66
2023/02/11 12:40:25;;;;;;;16.08;8.30;;;;;;;;;;5030718;28;20186;-66
2023/02/11 12:43:23;;;;;;;18.27;9.00;;;;;;;;;;5039730;28;20637;-66
2023/02/11 12:45:55;;;;;;;14.15;7.95;;;;;;;;;;5025976;28;20186;-67
2023/02/11 12:48:44;;;;;;;15.45;8.05;;;;;;;;;;5030548;28;20804;-67
2023/02/11 12:51:48;;;;;;;12.30;7.38;;;;;;;;;;5036948;28;20193;-67
2023/02/11 12:54:25;;;;;;;17.63;7.63;;;;;;;;;;5025160;28;20712;-66
2023/02/11 12:57:02;;;;;;;14.52;7.55;;;;;;;;;;5014318;28;20190;-66
2023/02/11 12:59:48;;;;;;;14.45;7.60;;;;;;;;;;5023826;28;20512;-66
2023/02/11 13:02:23;;;;;;;13.93;7.45;;;;;;;;;;5026882;28;20194;-66
2023/02/11 13:04:58;;;;;;;14.45;6.95;;;;;;;;;;5018556;28;20669;-67
2023/02/11 13:07:33;;;;;;;12.50;7.28;;;;;;;;;;5020709;28;20267;-67
2023/02/11 13:10:06;;;;;;;13.13;7.03;;;;;;;;;;5019068;28;20579;-67
2023/02/11 13:15:17;;;;;;;14.73;7.03;;;;;;;;;;5023229;28;20417;-67
2023/02/11 13:17:53;;;;;;;11.75;6.70;;;;;;;;;;5022680;28;20202;-67
2023/02/11 13:20:41;;;;;;;18.55;7.55;;;;;;;;;;5020813;28;20189;-67
2023/02/11 13:23:25;;;;;;;18.20;6.68;;;;;;;;;;5030455;28;20273;-66
2023/02/11 13:25:58;;;;;;;10.02;5.80;;;;;;;;;;5015388;28;20195;-66
2023/02/11 13:28:45;;;;;;;12.65;5.90;;;;;;;;;;5019312;28;20673;-67
2023/02/11 13:31:12;;;;;;;10.15;5.82;;;;;;;;;;5022191;28;20275;-66
2023/02/11 13:33:41;;;;;;;16.10;6.57;;;;;;;;;;5029108;28;20194;-66
2023/02/11 13:36:07;;;;;;;12.82;6.32;;;;;;;;;;5023106;28;20230;-68
2023/02/11 13:38:33;;;;;;;11.77;5.57;;;;;;;;;;5021761;28;20204;-67
2023/02/11 13:41:23;;;;;;;13.48;5.95;;;;;;;;;;5023347;28;20577;-67
2023/02/11 13:44:07;;;;;;;11.43;5.65;;;;;;;;;;5011978;28;20198;-67
2023/02/11 13:46:54;;;;;;;10.57;5.15;;;;;;;;;;5019610;28;20256;-67
2023/02/11 13:49:24;;;;;;;9.43;4.88;;;;;;;;;;5025233;28;20198;-67
2023/02/11 13:51:51;;;;;;;9.18;4.60;;;;;;;;;;5023434;28;20690;-67
2023/02/11 13:54:25;;;;;;;9.60;4.65;;;;;;;;;;5029317;28;20186;-67
2023/02/11 13:57:18;;;;;;;11.93;4.75;;;;;;;;;;5026766;28;20192;-67
2023/02/11 13:59:46;;;;;;;11.73;4.70;;;;;;;;;;5020799;28;20234;-67
2023/02/11 14:10:55;;;;;;;8.75;4.78;;;;;;;;;;5026264;28;20190;-67
2023/02/11 14:13:28;;;;;;;11.32;4.40;;;;;;;;;;5029739;28;20421;-67
2023/02/11 14:16:10;;;;;;;11.48;4.50;;;;;;;;;;5028641;28;20630;-67
2023/02/11 14:18:44;;;;;;;10.43;5.68;;;;;;;;;;5021883;28;20193;-67
2023/02/11 14:21:18;;;;;;;9.32;4.10;;;;;;;;;;5025682;28;20205;-67
2023/02/11 14:23:45;;;;;;;11.40;5.00;;;;;;;;;;5025727;28;20739;-67
2023/02/11 14:26:19;;;;;;;10.75;4.30;;;;;;;;;;5024507;28;20210;-67
2023/02/11 14:28:53;;;;;;;14.18;5.10;;;;;;;;;;5022624;28;20344;-66
2023/02/11 14:31:44;;;;;;;7.75;4.20;;;;;;;;;;5026185;28;20194;-66
2023/02/11 14:34:28;;;;;;;8.73;4.78;;;;;;;;;;5023842;28;20198;-66
2023/02/11 14:37:03;;;;;;;5.47;4.00;;;;;;;;;;5026048;28;20222;-66
2023/02/11 14:39:54;;;;;;;15.02;4.50;;;;;;;;;;5026883;28;20685;-67
2023/02/11 14:42:25;;;;;;;11.68;4.65;;;;;;;;;;5019225;28;20269;-67
2023/02/11 14:44:53;;;;;;;10.65;5.32;;;;;;;;;;5025109;28;20186;-66
2023/02/11 14:47:35;;;;;;;11.30;5.00;;;;;;;;;;5017062;28;20206;-66
2023/02/11 14:50:01;;;;;;;8.90;4.55;;;;;;;;;;5033730;28;20210;-67
2023/02/11 14:52:33;;;;;;;9.05;4.00;;;;;;;;;;5028329;28;20292;-66
2023/02/11 14:55:23;;;;;;;11.02;4.55;;;;;;;;;;5017615;28;20226;-67
2023/02/11 14:58:10;;;;;;;12.75;4.70;;;;;;;;;;5025230;28;20189;-67